sensor_id;sensor_type;location;lat;lon;timestamp;P1;durP1;ratioP1;P2;durP2;ratioP2
18887;SDS011;9576;47.792;9.628;2022-10-16T00:01:48;9.27;;;4.38;;
18887;SDS011;9576;47.792;9.628;2022-10-16T00:04:50;11.25;;;5.03;;
18887;SDS011;9576;47.792;9.628;2022-10-16T00:07:53;17.85;;;5.78;;
18887;SDS011;9576;47.792;9.628;2022-10-16T00:10:58;7.88;;;4.38;;
18887;SDS011;9576;47.792;9.628;2022-10-16T00:14:02;7.90;;;4.22;;
18887;SDS011;9576;47.792;9.628;2022-10-16T00:20:08;9.90;;;4.95;;
18887;SDS011;9576;47.792;9.628;2022-10-16T00:23:11;13.68;;;4.50;;
18887;SDS011;9576;47.792;9.628;2022-10-16T00:26:15;10.68;;;4.25;;
18887;SDS011;9576;47.792;9.628;2022-10-16T00:29:19;5.68;;;3.88;;
18887;SDS011;9576;47.792;9.628;2022-10-16T00:32:20;11.43;;;4.03;;
18887;SDS011;9576;47.792;9.628;2022-10-16T00:35:22;19.35;;;5.15;;
18887;SDS011;9576;47.792;9.628;2022-10-16T00:38:26;11.68;;;4.00;;
18887;SDS011;9576;47.792;9.628;2022-10-16T00:41:28;22.83;;;4.10;;
18887;SDS011;9576;47.792;9.628;2022-10-16T00:44:45;6.15;;;3.38;;
18887;SDS011;9576;47.792;9.628;2022-10-16T00:47:49;9.88;;;3.80;;
18887;SDS011;9576;47.792;9.628;2022-10-16T00:53:58;5.95;;;3.08;;
18887;SDS011;9576;47.792;9.628;2022-10-16T00:57:01;23.92;;;4.38;;
18887;SDS011;9576;47.792;9.628;2022-10-16T01:03:21;12.80;;;4.25;;
18887;SDS011;9576;47.792;9.628;2022-10-16T01:06:28;18.05;;;4.13;;
18887;SDS011;9576;47.792;9.628;2022-10-16T01:09:40;15.82;;;4.82;;
18887;SDS011;9576;47.792;9.628;2022-10-16T01:12:54;32.72;;;4.35;;
18887;SDS011;9576;47.792;9.628;2022-10-16T01:16:01;15.25;;;4.68;;
18887;SDS011;9576;47.792;9.628;2022-10-16T01:19:09;14.20;;;4.55;;
18887;SDS011;9576;47.792;9.628;2022-10-16T01:22:17;5.55;;;3.50;;
18887;SDS011;9576;47.792;9.628;2022-10-16T01:25:25;14.85;;;3.75;;
18887;SDS011;9576;47.792;9.628;2022-10-16T01:28:41;6.82;;;4.30;;
18887;SDS011;9576;47.792;9.628;2022-10-16T01:31:48;9.07;;;3.80;;
18887;SDS011;9576;47.792;9.628;2022-10-16T01:34:57;6.00;;;3.47;;
18887;SDS011;9576;47.792;9.628;2022-10-16T01:38:03;10.85;;;3.63;;
18887;SDS011;9576;47.792;9.628;2022-10-16T01:41:09;8.13;;;3.50;;
18887;SDS011;9576;47.792;9.628;2022-10-16T01:44:18;10.55;;;3.38;;
18887;SDS011;9576;47.792;9.628;2022-10-16T01:47:23;5.50;;;3.13;;
18887;SDS011;9576;47.792;9.628;2022-10-16T01:50:27;17.67;;;3.38;;
18887;SDS011;9576;47.792;9.628;2022-10-16T01:53:29;5.53;;;3.40;;
18887;SDS011;9576;47.792;9.628;2022-10-16T01:56:32;6.65;;;3.45;;
18887;SDS011;9576;47.792;9.628;2022-10-16T01:59:38;15.48;;;4.28;;
18887;SDS011;9576;47.792;9.628;2022-10-16T02:02:44;21.40;;;4.28;;
18887;SDS011;9576;47.792;9.628;2022-10-16T02:05:50;15.93;;;4.05;;
18887;SDS011;9576;47.792;9.628;2022-10-16T02:08:54;7.53;;;3.95;;
18887;SDS011;9576;47.792;9.628;2022-10-16T02:11:56;9.18;;;4.05;;
18887;SDS011;9576;47.792;9.628;2022-10-16T02:15:04;8.52;;;3.53;;
18887;SDS011;9576;47.792;9.628;2022-10-16T02:18:07;13.50;;;4.13;;
18887;SDS011;9576;47.792;9.628;2022-10-16T02:21:11;15.27;;;4.13;;
18887;SDS011;9576;47.792;9.628;2022-10-16T02:24:19;4.97;;;3.25;;
18887;SDS011;9576;47.792;9.628;2022-10-16T02:27:27;16.40;;;3.95;;
18887;SDS011;9576;47.792;9.628;2022-10-16T02:30:36;11.55;;;4.07;;
18887;SDS011;9576;47.792;9.628;2022-10-16T02:33:40;15.07;;;4.18;;
18887;SDS011;9576;47.792;9.628;2022-10-16T02:36:44;14.13;;;4.15;;
18887;SDS011;9576;47.792;9.628;2022-10-16T02:39:47;11.95;;;4.10;;
18887;SDS011;9576;47.792;9.628;2022-10-16T02:42:49;16.35;;;4.13;;
18887;SDS011;9576;47.792;9.628;2022-10-16T02:45:54;6.82;;;3.47;;
18887;SDS011;9576;47.792;9.628;2022-10-16T02:48:56;7.97;;;3.88;;
18887;SDS011;9576;47.792;9.628;2022-10-16T02:51:58;17.75;;;4.05;;
18887;SDS011;9576;47.792;9.628;2022-10-16T02:55:00;15.73;;;3.25;;
18887;SDS011;9576;47.792;9.628;2022-10-16T02:58:01;11.75;;;3.63;;
18887;SDS011;9576;47.792;9.628;2022-10-16T03:01:05;15.32;;;3.38;;
18887;SDS011;9576;47.792;9.628;2022-10-16T03:04:07;12.10;;;3.17;;
18887;SDS011;9576;47.792;9.628;2022-10-16T03:07:09;11.63;;;3.75;;
18887;SDS011;9576;47.792;9.628;2022-10-16T03:10:11;15.85;;;4.03;;
18887;SDS011;9576;47.792;9.628;2022-10-16T03:13:13;11.95;;;3.95;;
18887;SDS011;9576;47.792;9.628;2022-10-16T03:16:16;5.13;;;3.10;;
18887;SDS011;9576;47.792;9.628;2022-10-16T03:19:18;20.13;;;3.50;;
18887;SDS011;9576;47.792;9.628;2022-10-16T03:22:20;8.75;;;3.15;;
18887;SDS011;9576;47.792;9.628;2022-10-16T03:25:22;6.10;;;3.28;;
18887;SDS011;9576;47.792;9.628;2022-10-16T03:28:24;4.95;;;3.35;;
18887;SDS011;9576;47.792;9.628;2022-10-16T03:31:27;7.00;;;3.35;;
18887;SDS011;9576;47.792;9.628;2022-10-16T03:34:29;5.97;;;3.50;;
18887;SDS011;9576;47.792;9.628;2022-10-16T03:37:31;14.73;;;3.10;;
18887;SDS011;9576;47.792;9.628;2022-10-16T03:40:33;22.20;;;5.63;;
18887;SDS011;9576;47.792;9.628;2022-10-16T03:43:35;9.50;;;3.33;;
18887;SDS011;9576;47.792;9.628;2022-10-16T03:46:38;11.93;;;7.32;;
18887;SDS011;9576;47.792;9.628;2022-10-16T03:49:40;9.45;;;3.58;;
18887;SDS011;9576;47.792;9.628;2022-10-16T03:52:42;6.28;;;3.15;;
18887;SDS011;9576;47.792;9.628;2022-10-16T03:55:44;20.50;;;3.97;;
18887;SDS011;9576;47.792;9.628;2022-10-16T03:58:46;13.63;;;3.95;;
18887;SDS011;9576;47.792;9.628;2022-10-16T04:01:49;19.05;;;3.90;;
18887;SDS011;9576;47.792;9.628;2022-10-16T04:04:51;9.18;;;3.35;;
18887;SDS011;9576;47.792;9.628;2022-10-16T04:07:53;12.23;;;3.33;;
18887;SDS011;9576;47.792;9.628;2022-10-16T04:10:55;14.77;;;2.80;;
18887;SDS011;9576;47.792;9.628;2022-10-16T04:13:57;6.95;;;3.65;;
18887;SDS011;9576;47.792;9.628;2022-10-16T04:17:00;11.18;;;4.55;;
18887;SDS011;9576;47.792;9.628;2022-10-16T04:20:02;8.07;;;4.75;;
18887;SDS011;9576;47.792;9.628;2022-10-16T04:23:05;9.25;;;4.90;;
18887;SDS011;9576;47.792;9.628;2022-10-16T04:26:07;21.80;;;3.80;;
18887;SDS011;9576;47.792;9.628;2022-10-16T04:29:10;6.63;;;3.72;;
18887;SDS011;9576;47.792;9.628;2022-10-16T04:32:13;23.08;;;3.10;;
18887;SDS011;9576;47.792;9.628;2022-10-16T04:35:15;12.13;;;2.72;;
18887;SDS011;9576;47.792;9.628;2022-10-16T04:38:17;10.57;;;3.28;;
18887;SDS011;9576;47.792;9.628;2022-10-16T04:41:19;10.70;;;3.95;;
18887;SDS011;9576;47.792;9.628;2022-10-16T04:44:21;8.85;;;4.53;;
18887;SDS011;9576;47.792;9.628;2022-10-16T04:47:24;10.38;;;3.67;;
18887;SDS011;9576;47.792;9.628;2022-10-16T04:50:26;10.52;;;3.22;;
18887;SDS011;9576;47.792;9.628;2022-10-16T04:53:28;7.68;;;3.55;;
18887;SDS011;9576;47.792;9.628;2022-10-16T04:56:30;5.93;;;3.78;;
18887;SDS011;9576;47.792;9.628;2022-10-16T04:59:32;7.15;;;3.70;;
18887;SDS011;9576;47.792;9.628;2022-10-16T05:02:35;5.45;;;3.22;;
18887;SDS011;9576;47.792;9.628;2022-10-16T05:05:41;5.30;;;3.28;;
18887;SDS011;9576;47.792;9.628;2022-10-16T05:08:44;7.90;;;3.13;;
18887;SDS011;9576;47.792;9.628;2022-10-16T05:11:46;5.63;;;2.70;;
18887;SDS011;9576;47.792;9.628;2022-10-16T05:14:48;13.40;;;3.38;;
18887;SDS011;9576;47.792;9.628;2022-10-16T05:17:53;14.20;;;3.13;;
18887;SDS011;9576;47.792;9.628;2022-10-16T05:20:55;14.13;;;2.90;;
18887;SDS011;9576;47.792;9.628;2022-10-16T05:23:57;12.10;;;2.95;;
18887;SDS011;9576;47.792;9.628;2022-10-16T05:26:59;10.45;;;3.28;;
18887;SDS011;9576;47.792;9.628;2022-10-16T05:30:01;50.55;;;4.63;;
18887;SDS011;9576;47.792;9.628;2022-10-16T05:33:04;6.38;;;2.78;;
18887;SDS011;9576;47.792;9.628;2022-10-16T05:36:07;11.32;;;3.50;;
18887;SDS011;9576;47.792;9.628;2022-10-16T05:39:10;5.25;;;3.45;;
18887;SDS011;9576;47.792;9.628;2022-10-16T05:42:12;19.13;;;6.40;;
18887;SDS011;9576;47.792;9.628;2022-10-16T05:45:14;12.77;;;4.18;;
18887;SDS011;9576;47.792;9.628;2022-10-16T05:48:18;9.57;;;4.15;;
18887;SDS011;9576;47.792;9.628;2022-10-16T05:51:20;17.85;;;3.63;;
18887;SDS011;9576;47.792;9.628;2022-10-16T05:54:22;7.03;;;2.90;;
18887;SDS011;9576;47.792;9.628;2022-10-16T05:57:24;5.60;;;2.83;;
18887;SDS011;9576;47.792;9.628;2022-10-16T06:00:25;5.97;;;3.30;;
18887;SDS011;9576;47.792;9.628;2022-10-16T06:03:29;10.43;;;4.13;;
18887;SDS011;9576;47.792;9.628;2022-10-16T06:06:31;7.38;;;3.78;;
18887;SDS011;9576;47.792;9.628;2022-10-16T06:09:33;13.55;;;3.00;;
18887;SDS011;9576;47.792;9.628;2022-10-16T06:12:35;22.02;;;3.00;;
18887;SDS011;9576;47.792;9.628;2022-10-16T06:15:37;6.20;;;2.95;;
18887;SDS011;9576;47.792;9.628;2022-10-16T06:21:44;6.90;;;2.67;;
18887;SDS011;9576;47.792;9.628;2022-10-16T06:24:46;10.32;;;3.00;;
18887;SDS011;9576;47.792;9.628;2022-10-16T06:27:49;19.02;;;4.00;;
18887;SDS011;9576;47.792;9.628;2022-10-16T06:30:58;24.17;;;3.75;;
18887;SDS011;9576;47.792;9.628;2022-10-16T06:34:01;8.38;;;3.95;;
18887;SDS011;9576;47.792;9.628;2022-10-16T06:37:05;16.58;;;3.70;;
18887;SDS011;9576;47.792;9.628;2022-10-16T06:40:07;12.48;;;3.50;;
18887;SDS011;9576;47.792;9.628;2022-10-16T06:43:09;8.55;;;4.18;;
18887;SDS011;9576;47.792;9.628;2022-10-16T06:46:12;13.35;;;4.68;;
18887;SDS011;9576;47.792;9.628;2022-10-16T06:49:16;14.77;;;4.10;;
18887;SDS011;9576;47.792;9.628;2022-10-16T06:52:22;7.15;;;3.78;;
18887;SDS011;9576;47.792;9.628;2022-10-16T06:55:24;38.40;;;5.30;;
18887;SDS011;9576;47.792;9.628;2022-10-16T06:58:26;14.93;;;4.13;;
18887;SDS011;9576;47.792;9.628;2022-10-16T07:01:28;12.05;;;3.75;;
18887;SDS011;9576;47.792;9.628;2022-10-16T07:04:32;26.80;;;4.30;;
18887;SDS011;9576;47.792;9.628;2022-10-16T07:07:34;11.68;;;4.63;;
18887;SDS011;9576;47.792;9.628;2022-10-16T07:10:35;19.50;;;4.38;;
18887;SDS011;9576;47.792;9.628;2022-10-16T07:13:38;6.55;;;3.95;;
18887;SDS011;9576;47.792;9.628;2022-10-16T07:16:41;13.48;;;4.35;;
18887;SDS011;9576;47.792;9.628;2022-10-16T07:19:44;16.48;;;4.07;;
18887;SDS011;9576;47.792;9.628;2022-10-16T07:22:46;16.02;;;4.38;;
18887;SDS011;9576;47.792;9.628;2022-10-16T07:25:53;24.83;;;4.75;;
18887;SDS011;9576;47.792;9.628;2022-10-16T07:28:55;19.33;;;4.47;;
18887;SDS011;9576;47.792;9.628;2022-10-16T07:31:57;33.20;;;5.00;;
18887;SDS011;9576;47.792;9.628;2022-10-16T07:35:01;10.70;;;4.30;;
18887;SDS011;9576;47.792;9.628;2022-10-16T07:38:02;30.65;;;10.95;;
18887;SDS011;9576;47.792;9.628;2022-10-16T07:41:05;60.35;;;20.05;;
18887;SDS011;9576;47.792;9.628;2022-10-16T07:44:08;26.00;;;7.15;;
18887;SDS011;9576;47.792;9.628;2022-10-16T07:47:09;18.63;;;5.53;;
18887;SDS011;9576;47.792;9.628;2022-10-16T07:50:13;13.90;;;5.40;;
18887;SDS011;9576;47.792;9.628;2022-10-16T07:53:15;10.43;;;4.20;;
18887;SDS011;9576;47.792;9.628;2022-10-16T07:56:18;11.68;;;4.50;;
18887;SDS011;9576;47.792;9.628;2022-10-16T07:59:21;19.05;;;3.63;;
18887;SDS011;9576;47.792;9.628;2022-10-16T08:02:23;7.55;;;3.67;;
18887;SDS011;9576;47.792;9.628;2022-10-16T08:05:26;8.80;;;3.60;;
18887;SDS011;9576;47.792;9.628;2022-10-16T08:08:28;9.80;;;4.25;;
18887;SDS011;9576;47.792;9.628;2022-10-16T08:11:31;8.93;;;3.85;;
18887;SDS011;9576;47.792;9.628;2022-10-16T08:14:33;8.77;;;3.13;;
18887;SDS011;9576;47.792;9.628;2022-10-16T08:17:35;8.23;;;3.30;;
18887;SDS011;9576;47.792;9.628;2022-10-16T08:20:38;13.82;;;3.50;;
18887;SDS011;9576;47.792;9.628;2022-10-16T08:23:41;7.93;;;3.83;;
18887;SDS011;9576;47.792;9.628;2022-10-16T08:26:44;10.27;;;3.20;;
18887;SDS011;9576;47.792;9.628;2022-10-16T08:29:46;10.75;;;3.10;;
18887;SDS011;9576;47.792;9.628;2022-10-16T08:32:49;9.70;;;3.50;;
18887;SDS011;9576;47.792;9.628;2022-10-16T08:35:52;9.27;;;3.83;;
18887;SDS011;9576;47.792;9.628;2022-10-16T08:38:54;10.25;;;3.03;;
18887;SDS011;9576;47.792;9.628;2022-10-16T08:45:23;4.15;;;2.10;;
18887;SDS011;9576;47.792;9.628;2022-10-16T08:48:35;11.07;;;2.05;;
18887;SDS011;9576;47.792;9.628;2022-10-16T08:51:46;13.20;;;2.28;;
18887;SDS011;9576;47.792;9.628;2022-10-16T08:54:50;3.30;;;2.28;;
18887;SDS011;9576;47.792;9.628;2022-10-16T08:57:56;7.95;;;4.57;;
18887;SDS011;9576;47.792;9.628;2022-10-16T09:00:59;3.65;;;2.30;;
18887;SDS011;9576;47.792;9.628;2022-10-16T09:04:07;4.28;;;1.60;;
18887;SDS011;9576;47.792;9.628;2022-10-16T09:10:38;4.78;;;2.63;;
18887;SDS011;9576;47.792;9.628;2022-10-16T09:13:50;8.85;;;4.40;;
18887;SDS011;9576;47.792;9.628;2022-10-16T09:17:04;10.27;;;2.30;;
18887;SDS011;9576;47.792;9.628;2022-10-16T09:20:19;7.15;;;2.03;;
18887;SDS011;9576;47.792;9.628;2022-10-16T09:23:31;2.83;;;2.13;;
18887;SDS011;9576;47.792;9.628;2022-10-16T09:26:36;3.35;;;1.92;;
18887;SDS011;9576;47.792;9.628;2022-10-16T09:29:38;8.50;;;2.40;;
18887;SDS011;9576;47.792;9.628;2022-10-16T09:32:41;5.70;;;1.48;;
18887;SDS011;9576;47.792;9.628;2022-10-16T09:35:44;8.07;;;1.95;;
18887;SDS011;9576;47.792;9.628;2022-10-16T09:38:49;10.77;;;2.07;;
18887;SDS011;9576;47.792;9.628;2022-10-16T09:41:53;12.93;;;1.95;;
18887;SDS011;9576;47.792;9.628;2022-10-16T09:44:57;5.28;;;1.95;;
18887;SDS011;9576;47.792;9.628;2022-10-16T09:48:01;3.05;;;1.65;;
18887;SDS011;9576;47.792;9.628;2022-10-16T09:51:16;4.38;;;1.58;;
18887;SDS011;9576;47.792;9.628;2022-10-16T09:54:22;4.97;;;2.00;;
18887;SDS011;9576;47.792;9.628;2022-10-16T09:57:24;3.33;;;1.95;;
18887;SDS011;9576;47.792;9.628;2022-10-16T10:00:27;1.83;;;1.50;;
18887;SDS011;9576;47.792;9.628;2022-10-16T10:03:34;10.65;;;5.03;;
18887;SDS011;9576;47.792;9.628;2022-10-16T10:06:40;6.57;;;1.88;;
18887;SDS011;9576;47.792;9.628;2022-10-16T10:09:46;8.82;;;1.73;;
18887;SDS011;9576;47.792;9.628;2022-10-16T10:12:49;4.75;;;1.60;;
18887;SDS011;9576;47.792;9.628;2022-10-16T10:15:51;6.15;;;2.00;;
18887;SDS011;9576;47.792;9.628;2022-10-16T10:18:57;4.15;;;1.90;;
18887;SDS011;9576;47.792;9.628;2022-10-16T10:22:00;3.03;;;1.65;;
18887;SDS011;9576;47.792;9.628;2022-10-16T10:28:42;2.92;;;1.27;;
18887;SDS011;9576;47.792;9.628;2022-10-16T10:31:55;1.50;;;1.20;;
18887;SDS011;9576;47.792;9.628;2022-10-16T10:35:12;1.77;;;1.10;;
18887;SDS011;9576;47.792;9.628;2022-10-16T10:38:20;3.75;;;0.90;;
18887;SDS011;9576;47.792;9.628;2022-10-16T10:41:39;2.22;;;1.35;;
18887;SDS011;9576;47.792;9.628;2022-10-16T10:48:20;1.58;;;1.13;;
18887;SDS011;9576;47.792;9.628;2022-10-16T10:51:43;1.75;;;1.10;;
18887;SDS011;9576;47.792;9.628;2022-10-16T10:54:50;1.45;;;0.88;;
18887;SDS011;9576;47.792;9.628;2022-10-16T10:58:04;2.40;;;1.35;;
18887;SDS011;9576;47.792;9.628;2022-10-16T11:07:45;9.20;;;1.27;;
18887;SDS011;9576;47.792;9.628;2022-10-16T11:10:52;8.80;;;1.20;;
18887;SDS011;9576;47.792;9.628;2022-10-16T11:13:59;7.00;;;1.42;;
18887;SDS011;9576;47.792;9.628;2022-10-16T11:17:07;5.63;;;1.67;;
18887;SDS011;9576;47.792;9.628;2022-10-16T11:20:13;3.25;;;1.33;;
18887;SDS011;9576;47.792;9.628;2022-10-16T11:23:21;2.25;;;1.02;;
18887;SDS011;9576;47.792;9.628;2022-10-16T11:26:28;3.75;;;0.95;;
18887;SDS011;9576;47.792;9.628;2022-10-16T11:29:35;1.67;;;1.00;;
18887;SDS011;9576;47.792;9.628;2022-10-16T11:32:56;2.95;;;1.27;;
18887;SDS011;9576;47.792;9.628;2022-10-16T11:36:09;11.82;;;1.42;;
18887;SDS011;9576;47.792;9.628;2022-10-16T11:39:18;11.35;;;2.13;;
18887;SDS011;9576;47.792;9.628;2022-10-16T11:42:27;1.88;;;1.05;;
18887;SDS011;9576;47.792;9.628;2022-10-16T11:45:40;1.60;;;0.82;;
18887;SDS011;9576;47.792;9.628;2022-10-16T11:48:47;6.03;;;1.13;;
18887;SDS011;9576;47.792;9.628;2022-10-16T11:51:54;2.17;;;1.00;;
18887;SDS011;9576;47.792;9.628;2022-10-16T11:55:03;0.93;;;0.65;;
18887;SDS011;9576;47.792;9.628;2022-10-16T11:58:17;8.68;;;1.20;;
18887;SDS011;9576;47.792;9.628;2022-10-16T12:01:27;4.20;;;1.38;;
18887;SDS011;9576;47.792;9.628;2022-10-16T12:04:36;3.53;;;1.40;;
18887;SDS011;9576;47.792;9.628;2022-10-16T12:07:48;2.60;;;1.15;;
18887;SDS011;9576;47.792;9.628;2022-10-16T12:11:05;1.92;;;1.25;;
18887;SDS011;9576;47.792;9.628;2022-10-16T12:17:38;5.60;;;1.33;;
18887;SDS011;9576;47.792;9.628;2022-10-16T12:20:40;1.48;;;1.10;;
18887;SDS011;9576;47.792;9.628;2022-10-16T12:23:46;1.27;;;0.95;;
18887;SDS011;9576;47.792;9.628;2022-10-16T12:26:50;2.10;;;0.85;;
18887;SDS011;9576;47.792;9.628;2022-10-16T12:29:54;2.15;;;1.13;;
18887;SDS011;9576;47.792;9.628;2022-10-16T12:32:59;5.13;;;0.88;;
18887;SDS011;9576;47.792;9.628;2022-10-16T12:36:03;4.80;;;1.13;;
18887;SDS011;9576;47.792;9.628;2022-10-16T12:39:16;1.17;;;1.08;;
18887;SDS011;9576;47.792;9.628;2022-10-16T12:42:23;1.10;;;0.80;;
18887;SDS011;9576;47.792;9.628;2022-10-16T12:45:34;12.52;;;1.00;;
18887;SDS011;9576;47.792;9.628;2022-10-16T12:48:38;1.27;;;0.73;;
18887;SDS011;9576;47.792;9.628;2022-10-16T12:51:41;5.10;;;0.93;;
18887;SDS011;9576;47.792;9.628;2022-10-16T12:54:44;1.98;;;0.80;;
18887;SDS011;9576;47.792;9.628;2022-10-16T12:57:49;3.65;;;0.80;;
18887;SDS011;9576;47.792;9.628;2022-10-16T13:01:07;7.00;;;1.27;;
18887;SDS011;9576;47.792;9.628;2022-10-16T13:08:02;1.08;;;0.77;;
18887;SDS011;9576;47.792;9.628;2022-10-16T13:11:13;7.47;;;0.90;;
18887;SDS011;9576;47.792;9.628;2022-10-16T13:17:53;7.65;;;0.93;;
18887;SDS011;9576;47.792;9.628;2022-10-16T13:21:08;9.05;;;0.60;;
18887;SDS011;9576;47.792;9.628;2022-10-16T13:24:25;2.75;;;0.70;;
18887;SDS011;9576;47.792;9.628;2022-10-16T13:27:36;15.63;;;1.27;;
18887;SDS011;9576;47.792;9.628;2022-10-16T13:30:44;6.85;;;0.82;;
18887;SDS011;9576;47.792;9.628;2022-10-16T13:33:54;1.52;;;0.80;;
18887;SDS011;9576;47.792;9.628;2022-10-16T13:37:00;4.70;;;0.90;;
18887;SDS011;9576;47.792;9.628;2022-10-16T13:40:04;54.90;;;3.00;;
18887;SDS011;9576;47.792;9.628;2022-10-16T13:43:19;0.82;;;0.60;;
18887;SDS011;9576;47.792;9.628;2022-10-16T13:46:24;0.47;;;0.47;;
18887;SDS011;9576;47.792;9.628;2022-10-16T13:49:27;1.52;;;0.65;;
18887;SDS011;9576;47.792;9.628;2022-10-16T13:52:30;1.25;;;0.73;;
18887;SDS011;9576;47.792;9.628;2022-10-16T13:55:33;1.40;;;1.30;;
18887;SDS011;9576;47.792;9.628;2022-10-16T13:58:35;1.15;;;1.05;;
18887;SDS011;9576;47.792;9.628;2022-10-16T14:01:39;3.15;;;0.85;;
18887;SDS011;9576;47.792;9.628;2022-10-16T14:04:43;8.20;;;1.08;;
18887;SDS011;9576;47.792;9.628;2022-10-16T14:07:49;1.00;;;0.80;;
18887;SDS011;9576;47.792;9.628;2022-10-16T14:10:53;2.50;;;0.93;;
18887;SDS011;9576;47.792;9.628;2022-10-16T14:13:57;2.80;;;1.08;;
18887;SDS011;9576;47.792;9.628;2022-10-16T14:16:59;1.25;;;0.90;;
18887;SDS011;9576;47.792;9.628;2022-10-16T14:20:03;1.15;;;0.63;;
18887;SDS011;9576;47.792;9.628;2022-10-16T14:23:18;0.98;;;0.88;;
18887;SDS011;9576;47.792;9.628;2022-10-16T14:26:22;9.38;;;1.38;;
18887;SDS011;9576;47.792;9.628;2022-10-16T14:29:27;2.42;;;0.90;;
18887;SDS011;9576;47.792;9.628;2022-10-16T14:32:31;1.20;;;0.98;;
18887;SDS011;9576;47.792;9.628;2022-10-16T14:35:34;1.15;;;0.45;;
18887;SDS011;9576;47.792;9.628;2022-10-16T14:38:38;6.27;;;0.80;;
18887;SDS011;9576;47.792;9.628;2022-10-16T14:41:43;3.50;;;0.90;;
18887;SDS011;9576;47.792;9.628;2022-10-16T14:44:47;1.52;;;0.70;;
18887;SDS011;9576;47.792;9.628;2022-10-16T14:47:53;1.67;;;1.02;;
18887;SDS011;9576;47.792;9.628;2022-10-16T14:50:57;0.82;;;0.80;;
18887;SDS011;9576;47.792;9.628;2022-10-16T14:54:00;4.05;;;0.85;;
18887;SDS011;9576;47.792;9.628;2022-10-16T14:57:02;2.30;;;1.27;;
18887;SDS011;9576;47.792;9.628;2022-10-16T15:00:08;1.35;;;0.65;;
18887;SDS011;9576;47.792;9.628;2022-10-16T15:03:16;1.60;;;1.08;;
18887;SDS011;9576;47.792;9.628;2022-10-16T15:06:18;8.88;;;1.45;;
18887;SDS011;9576;47.792;9.628;2022-10-16T15:09:22;1.85;;;0.85;;
18887;SDS011;9576;47.792;9.628;2022-10-16T15:12:24;4.30;;;1.10;;
18887;SDS011;9576;47.792;9.628;2022-10-16T15:18:46;2.33;;;1.20;;
18887;SDS011;9576;47.792;9.628;2022-10-16T15:21:48;2.95;;;1.50;;
18887;SDS011;9576;47.792;9.628;2022-10-16T15:24:52;5.88;;;1.02;;
18887;SDS011;9576;47.792;9.628;2022-10-16T15:27:54;1.30;;;1.00;;
18887;SDS011;9576;47.792;9.628;2022-10-16T15:30:56;1.30;;;1.02;;
18887;SDS011;9576;47.792;9.628;2022-10-16T15:33:58;1.48;;;1.20;;
18887;SDS011;9576;47.792;9.628;2022-10-16T15:37:04;4.38;;;1.20;;
18887;SDS011;9576;47.792;9.628;2022-10-16T15:40:08;6.63;;;1.17;;
18887;SDS011;9576;47.792;9.628;2022-10-16T15:43:10;14.38;;;1.77;;
18887;SDS011;9576;47.792;9.628;2022-10-16T15:46:12;3.47;;;1.88;;
18887;SDS011;9576;47.792;9.628;2022-10-16T15:49:14;4.10;;;1.55;;
18887;SDS011;9576;47.792;9.628;2022-10-16T15:52:16;4.93;;;1.38;;
18887;SDS011;9576;47.792;9.628;2022-10-16T15:55:19;10.23;;;1.20;;
18887;SDS011;9576;47.792;9.628;2022-10-16T15:58:21;2.50;;;1.60;;
18887;SDS011;9576;47.792;9.628;2022-10-16T16:01:24;1.73;;;0.98;;
18887;SDS011;9576;47.792;9.628;2022-10-16T16:04:26;15.32;;;1.67;;
18887;SDS011;9576;47.792;9.628;2022-10-16T16:10:34;9.25;;;1.60;;
18887;SDS011;9576;47.792;9.628;2022-10-16T16:13:36;13.15;;;1.90;;
18887;SDS011;9576;47.792;9.628;2022-10-16T16:16:38;6.65;;;1.80;;
18887;SDS011;9576;47.792;9.628;2022-10-16T16:19:41;10.25;;;1.67;;
18887;SDS011;9576;47.792;9.628;2022-10-16T16:22:43;3.05;;;0.90;;
18887;SDS011;9576;47.792;9.628;2022-10-16T16:25:46;16.80;;;1.98;;
18887;SDS011;9576;47.792;9.628;2022-10-16T16:29:04;12.55;;;1.63;;
18887;SDS011;9576;47.792;9.628;2022-10-16T16:32:06;9.38;;;1.98;;
18887;SDS011;9576;47.792;9.628;2022-10-16T16:35:08;2.78;;;1.45;;
18887;SDS011;9576;47.792;9.628;2022-10-16T16:38:10;21.67;;;2.28;;
18887;SDS011;9576;47.792;9.628;2022-10-16T16:41:13;9.00;;;2.85;;
18887;SDS011;9576;47.792;9.628;2022-10-16T16:44:16;9.40;;;1.85;;
18887;SDS011;9576;47.792;9.628;2022-10-16T16:47:18;12.10;;;1.92;;
18887;SDS011;9576;47.792;9.628;2022-10-16T16:50:20;2.45;;;2.08;;
18887;SDS011;9576;47.792;9.628;2022-10-16T16:53:22;6.38;;;1.42;;
18887;SDS011;9576;47.792;9.628;2022-10-16T16:56:26;9.32;;;2.90;;
18887;SDS011;9576;47.792;9.628;2022-10-16T16:59:28;40.75;;;21.88;;
18887;SDS011;9576;47.792;9.628;2022-10-16T17:02:32;16.83;;;10.40;;
18887;SDS011;9576;47.792;9.628;2022-10-16T17:05:34;12.43;;;5.75;;
18887;SDS011;9576;47.792;9.628;2022-10-16T17:08:36;14.38;;;5.70;;
18887;SDS011;9576;47.792;9.628;2022-10-16T17:11:40;14.45;;;4.15;;
18887;SDS011;9576;47.792;9.628;2022-10-16T17:14:44;7.47;;;3.03;;
18887;SDS011;9576;47.792;9.628;2022-10-16T17:17:46;16.33;;;5.32;;
18887;SDS011;9576;47.792;9.628;2022-10-16T17:20:49;2.33;;;1.77;;
18887;SDS011;9576;47.792;9.628;2022-10-16T17:23:51;16.27;;;2.63;;
18887;SDS011;9576;47.792;9.628;2022-10-16T17:26:55;8.13;;;2.50;;
18887;SDS011;9576;47.792;9.628;2022-10-16T17:29:57;5.43;;;3.25;;
18887;SDS011;9576;47.792;9.628;2022-10-16T17:32:59;5.68;;;3.65;;
18887;SDS011;9576;47.792;9.628;2022-10-16T17:36:00;8.35;;;3.58;;
18887;SDS011;9576;47.792;9.628;2022-10-16T17:39:04;17.90;;;7.32;;
18887;SDS011;9576;47.792;9.628;2022-10-16T17:42:08;21.75;;;6.00;;
18887;SDS011;9576;47.792;9.628;2022-10-16T17:45:10;13.88;;;5.55;;
18887;SDS011;9576;47.792;9.628;2022-10-16T17:48:12;26.00;;;14.15;;
18887;SDS011;9576;47.792;9.628;2022-10-16T17:51:15;18.25;;;7.35;;
18887;SDS011;9576;47.792;9.628;2022-10-16T17:54:19;24.83;;;8.98;;
18887;SDS011;9576;47.792;9.628;2022-10-16T17:57:22;26.77;;;9.20;;
18887;SDS011;9576;47.792;9.628;2022-10-16T18:00:24;31.23;;;13.60;;
18887;SDS011;9576;47.792;9.628;2022-10-16T18:03:26;9.65;;;5.28;;
18887;SDS011;9576;47.792;9.628;2022-10-16T18:06:29;15.93;;;3.85;;
18887;SDS011;9576;47.792;9.628;2022-10-16T18:09:31;8.20;;;3.67;;
18887;SDS011;9576;47.792;9.628;2022-10-16T18:12:35;12.55;;;5.50;;
18887;SDS011;9576;47.792;9.628;2022-10-16T18:15:37;30.35;;;7.03;;
18887;SDS011;9576;47.792;9.628;2022-10-16T18:18:39;19.65;;;6.85;;
18887;SDS011;9576;47.792;9.628;2022-10-16T18:21:43;15.95;;;4.78;;
18887;SDS011;9576;47.792;9.628;2022-10-16T18:24:45;24.27;;;4.57;;
18887;SDS011;9576;47.792;9.628;2022-10-16T18:27:49;18.88;;;3.80;;
18887;SDS011;9576;47.792;9.628;2022-10-16T18:30:54;15.43;;;3.10;;
18887;SDS011;9576;47.792;9.628;2022-10-16T18:33:56;14.00;;;3.47;;
18887;SDS011;9576;47.792;9.628;2022-10-16T18:36:58;11.75;;;3.50;;
18887;SDS011;9576;47.792;9.628;2022-10-16T18:40:00;3.80;;;2.42;;
18887;SDS011;9576;47.792;9.628;2022-10-16T18:43:05;6.53;;;2.88;;
18887;SDS011;9576;47.792;9.628;2022-10-16T18:46:07;3.50;;;2.38;;
18887;SDS011;9576;47.792;9.628;2022-10-16T18:52:13;11.30;;;2.53;;
18887;SDS011;9576;47.792;9.628;2022-10-16T18:55:15;3.47;;;2.67;;
18887;SDS011;9576;47.792;9.628;2022-10-16T18:58:18;12.93;;;2.83;;
18887;SDS011;9576;47.792;9.628;2022-10-16T19:01:21;3.55;;;2.33;;
18887;SDS011;9576;47.792;9.628;2022-10-16T19:04:24;10.93;;;5.35;;
18887;SDS011;9576;47.792;9.628;2022-10-16T19:07:26;13.15;;;2.75;;
18887;SDS011;9576;47.792;9.628;2022-10-16T19:10:28;10.18;;;2.65;;
18887;SDS011;9576;47.792;9.628;2022-10-16T19:13:31;4.68;;;2.55;;
18887;SDS011;9576;47.792;9.628;2022-10-16T19:16:34;11.98;;;2.70;;
18887;SDS011;9576;47.792;9.628;2022-10-16T19:19:36;4.93;;;2.33;;
18887;SDS011;9576;47.792;9.628;2022-10-16T19:22:38;16.05;;;6.63;;
18887;SDS011;9576;47.792;9.628;2022-10-16T19:25:59;24.50;;;7.97;;
18887;SDS011;9576;47.792;9.628;2022-10-16T19:29:03;18.20;;;6.85;;
18887;SDS011;9576;47.792;9.628;2022-10-16T19:32:06;15.80;;;5.40;;
18887;SDS011;9576;47.792;9.628;2022-10-16T19:35:08;9.73;;;4.32;;